Hlavní strana
METAR-TAF:

METAR-TAF

Letiště :

Vandenberg Airport

Tampa, Florida, Spojené státy americké

zeměpisná šířka: 28-00-50N, zeměpisná délka: 082-20-43W, výška: 7 m

Aktuální stav počasí

Zpráva byla vytvořena před 6 minutami, v 18:15 UTC
Severozápadní vítr 7 kt
Teplota 23°C
Vlhkost vzduchu 65%
Tlak 1011 hPa
Viditelnost: 16.1 km
Polojasno ve výšce 3000 ft

METAR: KVDF 141815Z AUTO 31007KT 10SM SCT030 23/16 A2985 RMK AO2

Čas: 13:21 (18:21 UTC)


TAF: chybějící

Stav a předpovědi počasí z více než 4 000 letišť (zprávy METAR a TAF).

Červené a žluté tečky na mapě představují dostupné meteorologické stanice.

Když kurzor umístíte na tečku, zobrazí se název stanice.

Pak kliknutím zobrazíte stav a předpověď počasí.

Chcete-li změnit mapu, kliknutím na zelené tlačítko se znaménkem +mapu přiblížíte, kliknutím na zelené tlačítko se znaménkem – mapu oddálíte a kliknutím na zelené šipky přejdete na sousední mapy.


METAR-TAF: